Terminal Aerodrome Forecast
Issued by NWS Louisville, KY

Home | Current Version | Previous Version | Text Only | Print | Product List | Glossary On
Versions: 1 2 3 4 5 6 7 8 9 10 11 12 13 14 15 16
467
FTUS43 KLMK 131722
TAFSDF
TAF
KSDF 131722Z 1318/1424 36010KT P6SM SCT025 BKN250
     FM132000 36010KT P6SM BKN028
     FM140100 34005KT P6SM SCT030
     FM141400 08004KT P6SM SCT250=

USA.gov is the U.S. government's official web portal to all federal, state and local government web resources and services.